Terminal Aerodrome Forecast
Issued by NWS Corpus Christi, TX

Home | Current Version | Previous Version | Text Only | Print | Product List | Glossary On
Versions: 1 2 3 4 5 6 7 8 9 10 11 12 13
563
FTUS44 KCRP 120522
TAFVCT
TAF
KVCT 120522Z 1206/1306 24005KT P6SM BKN250
     FM121500 36013G20KT P6SM SCT180 SCT250
     FM122100 35010KT P6SM SKC=

USA.gov is the U.S. government's official web portal to all federal, state and local government web resources and services.